Time;durP1;ratioP1;P1;durP2;ratioP2;P2;SDS_P1;SDS_P2;PMS_P1;PMS_P2;Temp;Humidity;BMP_temperature;BMP_pressure;BME280_temperature;BME280_humidity;BME280_pressure;Samples;Min_cycle;Max_cycle;Signal;HPM_P1;HPM_P2
2023/05/08 00:01:56;0.00;0.00;0.62;0.00;0.00;0.62;3.30;3.00;;;25.80;22.00;;;;;;2253834;61;21024;-61
2023/05/08 00:04:40;0.00;0.00;0.62;0.00;0.00;0.62;2.60;2.40;;;25.80;22.00;;;;;;2253654;61;20387;-61
2023/05/08 00:07:25;0.00;0.00;0.62;0.00;0.00;0.62;2.50;2.30;;;25.80;22.00;;;;;;2253643;61;20417;-59
2023/05/08 00:10:11;0.00;0.00;0.62;0.00;0.00;0.62;3.87;3.30;;;25.80;22.00;;;;;;2253899;61;20390;-59
2023/05/08 00:12:56;0.00;0.00;0.62;0.00;0.00;0.62;2.60;2.40;;;25.80;22.00;;;;;;2253298;61;20366;-60
2023/05/08 00:15:41;0.00;0.00;0.62;0.00;0.00;0.62;3.00;2.63;;;25.80;22.00;;;;;;2253930;61;20387;-60
2023/05/08 00:18:27;0.00;0.00;0.62;0.00;0.00;0.62;2.83;2.63;;;25.80;22.00;;;;;;2253812;61;20482;-60
2023/05/08 00:21:12;0.00;0.00;0.62;0.00;0.00;0.62;3.47;3.17;;;25.80;22.10;;;;;;2252847;61;20467;-59
2023/05/08 00:23:56;0.00;0.00;0.62;0.00;0.00;0.62;3.33;3.03;;;25.80;22.00;;;;;;2253782;61;20786;-60
2023/05/08 00:26:43;0.00;0.00;0.62;0.00;0.00;0.62;3.03;2.60;;;25.80;22.00;;;;;;2254046;61;20383;-60
2023/05/08 00:29:27;0.00;0.00;0.62;0.00;0.00;0.62;3.10;2.80;;;25.80;22.00;;;;;;2253170;61;20434;-60
2023/05/08 00:32:12;0.00;0.00;0.62;0.00;0.00;0.62;2.90;2.60;;;25.80;22.00;;;;;;2254320;61;20370;-60
2023/05/08 00:34:58;0.00;0.00;0.62;0.00;0.00;0.62;2.70;2.50;;;25.70;22.00;;;;;;2253128;61;20363;-60
2023/05/08 00:37:43;0.00;0.00;0.62;0.00;0.00;0.62;2.53;2.33;;;25.70;22.00;;;;;;2254062;61;20406;-60
2023/05/08 00:40:27;0.00;0.00;0.62;0.00;0.00;0.62;2.57;2.37;;;25.70;22.00;;;;;;2253495;61;20398;-60
2023/05/08 00:43:12;0.00;0.00;0.62;0.00;0.00;0.62;2.80;2.60;;;25.70;22.00;;;;;;2252508;61;20350;-58
2023/05/08 00:46:00;0.00;0.00;0.62;0.00;0.00;0.62;2.60;2.40;;;25.70;22.00;;;;;;2254347;61;20871;-60
2023/05/08 00:48:45;0.00;0.00;0.62;0.00;0.00;0.62;3.10;2.80;;;25.70;22.00;;;;;;2254396;61;20918;-61
2023/05/08 00:51:33;0.00;0.00;0.62;0.00;0.00;0.62;3.30;2.90;;;25.70;22.00;;;;;;2253197;61;20370;-61
2023/05/08 00:54:18;0.00;0.00;0.62;0.00;0.00;0.62;3.20;2.90;;;25.70;22.00;;;;;;2254789;61;20390;-61
2023/05/08 00:57:06;0.00;0.00;0.62;0.00;0.00;0.62;3.20;2.60;;;25.70;22.00;;;;;;2254212;61;20520;-60
2023/05/08 00:59:52;0.00;0.00;0.62;0.00;0.00;0.62;2.97;2.67;;;25.70;22.00;;;;;;2254006;61;20402;-60
2023/05/08 01:02:39;0.00;0.00;0.62;0.00;0.00;0.62;2.60;2.40;;;25.70;22.10;;;;;;2254630;61;20446;-64
2023/05/08 01:05:25;0.00;0.00;0.62;0.00;0.00;0.62;2.80;2.60;;;25.70;22.00;;;;;;2253199;61;20375;-61
2023/05/08 01:08:11;0.00;0.00;0.62;0.00;0.00;0.62;4.97;3.13;;;25.70;22.00;;;;;;2254255;61;20358;-60
2023/05/08 01:10:59;0.00;0.00;0.62;0.00;0.00;0.62;2.70;2.50;;;25.70;22.00;;;;;;2270893;49;20554;-59
2023/05/08 01:14:03;0.00;0.00;0.62;0.00;0.00;0.62;2.67;2.47;;;25.70;22.00;;;;;;2263325;61;20426;-60
2023/05/08 01:17:00;0.00;0.00;0.62;0.00;0.00;0.62;3.13;2.83;;;25.70;22.00;;;;;;2262639;61;20403;-60
2023/05/08 01:20:02;0.00;0.00;0.62;0.00;0.00;0.62;2.80;2.60;;;25.70;22.10;;;;;;2261575;61;20425;-60
2023/05/08 01:23:10;0.00;0.00;0.62;0.00;0.00;0.62;2.77;2.57;;;25.70;22.00;;;;;;2262373;61;21146;-60
2023/05/08 01:26:44;0.00;0.00;0.62;0.00;0.00;0.62;3.20;2.90;;;25.60;22.00;;;;;;2262766;61;20996;-60
2023/05/08 01:29:58;0.00;0.00;0.62;0.00;0.00;0.62;3.10;2.80;;;25.60;22.00;;;;;;2262291;61;20936;-60
2023/05/08 01:32:54;0.00;0.00;0.62;0.00;0.00;0.62;2.63;2.43;;;25.60;22.00;;;;;;2262299;61;20361;-59
2023/05/08 01:35:45;0.00;0.00;0.62;0.00;0.00;0.62;3.10;2.80;;;25.60;22.00;;;;;;2261747;61;20365;-59
2023/05/08 01:38:38;0.00;0.00;0.62;0.00;0.00;0.62;2.80;2.43;;;25.60;22.00;;;;;;2262801;61;20450;-60
2023/05/08 01:41:27;0.00;0.00;0.62;0.00;0.00;0.62;2.90;2.70;;;25.60;22.00;;;;;;2262226;61;20432;-60
2023/05/08 01:44:16;0.00;0.00;0.62;0.00;0.00;0.62;3.20;3.00;;;25.60;22.00;;;;;;2262350;61;20387;-59
2023/05/08 01:47:06;0.00;0.00;0.62;0.00;0.00;0.62;3.10;2.80;;;25.60;22.00;;;;;;2262786;61;20361;-60
2023/05/08 01:50:02;0.00;0.00;0.62;0.00;0.00;0.62;3.50;3.20;;;25.60;22.30;;;;;;2261515;61;20385;-60
2023/05/08 01:52:56;0.00;0.00;0.62;0.00;0.00;0.62;3.40;3.10;;;25.60;22.00;;;;;;2262346;61;20365;-60
2023/05/08 01:55:45;0.00;0.00;0.62;0.00;0.00;0.62;2.77;2.57;;;25.60;22.00;;;;;;2262375;61;20408;-59
2023/05/08 01:58:33;0.00;0.00;0.62;0.00;0.00;0.62;3.43;2.83;;;25.50;22.00;;;;;;2262011;61;20381;-60
2023/05/08 02:01:21;0.00;0.00;0.62;0.00;0.00;0.62;2.93;2.70;;;25.50;22.00;;;;;;2261830;61;20357;-60
2023/05/08 02:04:07;0.00;0.00;0.62;0.00;0.00;0.62;2.90;2.70;;;25.50;22.00;;;;;;2261829;61;20766;-60
2023/05/08 02:06:54;0.00;0.00;0.62;0.00;0.00;0.62;2.97;2.73;;;25.50;22.00;;;;;;2262168;61;20750;-59
2023/05/08 02:09:41;0.00;0.00;0.62;0.00;0.00;0.62;3.30;3.00;;;25.50;22.00;;;;;;2262339;61;20420;-60
2023/05/08 02:12:28;0.00;0.00;0.62;0.00;0.00;0.62;3.30;3.10;;;25.50;22.00;;;;;;2261462;61;20368;-60
2023/05/08 02:15:15;0.00;0.00;0.62;0.00;0.00;0.62;2.83;2.53;;;25.50;22.00;;;;;;2262079;61;20403;-57
2023/05/08 02:18:01;0.00;0.00;0.62;0.00;0.00;0.62;2.83;2.63;;;25.50;22.00;;;;;;2262124;61;20987;-59
2023/05/08 02:20:47;0.00;0.00;0.62;0.00;0.00;0.62;3.43;3.13;;;25.50;22.00;;;;;;2261270;61;20920;-60
2023/05/08 02:23:34;0.00;0.00;0.62;0.00;0.00;0.62;3.10;2.80;;;25.50;22.00;;;;;;2261713;61;20360;-59
2023/05/08 02:26:21;0.00;0.00;0.62;0.00;0.00;0.62;3.17;2.87;;;25.50;21.90;;;;;;2261615;61;20519;-60
2023/05/08 02:29:07;0.00;0.00;0.62;0.00;0.00;0.62;2.97;2.57;;;25.50;22.00;;;;;;2261319;61;20381;-60
2023/05/08 02:31:53;0.00;0.00;0.62;0.00;0.00;0.62;3.70;3.40;;;25.50;21.90;;;;;;2262042;61;20408;-60
2023/05/08 02:34:40;0.00;0.00;0.62;0.00;0.00;0.62;3.27;2.97;;;25.50;21.90;;;;;;2261111;61;20946;-60
2023/05/08 02:37:26;0.00;0.00;0.62;0.00;0.00;0.62;3.13;2.60;;;25.50;22.00;;;;;;2261786;61;20384;-59
2023/05/08 02:40:13;0.00;0.00;0.62;0.00;0.00;0.62;2.90;2.60;;;25.50;22.00;;;;;;2261832;61;20381;-59
2023/05/08 02:42:58;0.00;0.00;0.62;0.00;0.00;0.62;2.73;2.43;;;25.50;22.00;;;;;;2261331;61;20365;-60
2023/05/08 02:45:49;0.00;0.00;0.62;0.00;0.00;0.62;3.77;3.47;;;25.40;21.90;;;;;;2261945;61;20365;-58
2023/05/08 02:48:39;0.00;0.00;0.62;0.00;0.00;0.62;2.50;2.30;;;25.40;21.90;;;;;;2261044;61;20361;-59
2023/05/08 02:51:28;0.00;0.00;0.62;0.00;0.00;0.62;3.73;3.00;;;25.40;21.90;;;;;;2262014;61;20385;-58
2023/05/08 02:54:21;0.00;0.00;0.62;0.00;0.00;0.62;3.23;2.60;;;25.40;21.90;;;;;;2261721;61;20390;-59
2023/05/08 02:57:17;0.00;0.00;0.62;0.00;0.00;0.62;2.87;2.50;;;25.40;21.90;;;;;;2261107;61;20404;-57
2023/05/08 03:00:11;0.00;0.00;0.62;0.00;0.00;0.62;3.87;3.00;;;25.40;21.90;;;;;;2261519;61;20588;-60
2023/05/08 03:03:06;0.00;0.00;0.62;0.00;0.00;0.62;3.00;2.70;;;25.40;21.90;;;;;;2261246;61;20404;-60
2023/05/08 03:05:54;0.00;0.00;0.62;0.00;0.00;0.62;2.80;2.60;;;25.40;21.90;;;;;;2261624;61;20897;-59
2023/05/08 03:08:41;0.00;0.00;0.62;0.00;0.00;0.62;3.10;2.80;;;25.40;21.90;;;;;;2262261;61;20412;-59
2023/05/08 03:11:38;0.00;0.00;0.62;0.00;0.00;0.62;3.10;2.80;;;25.40;21.90;;;;;;2261160;61;20384;-60
2023/05/08 03:14:27;0.00;0.00;0.62;0.00;0.00;0.62;2.90;2.60;;;25.40;22.40;;;;;;2262095;61;20361;-60
2023/05/08 03:17:15;0.00;0.00;0.62;0.00;0.00;0.62;2.93;2.67;;;25.40;21.90;;;;;;2261919;61;20385;-60
2023/05/08 03:20:05;0.00;0.00;0.62;0.00;0.00;0.62;3.40;3.10;;;25.40;21.90;;;;;;2261483;61;20384;-60
2023/05/08 03:22:54;0.00;0.00;0.62;0.00;0.00;0.62;3.30;2.80;;;25.40;21.90;;;;;;2261987;61;20439;-60
2023/05/08 03:25:42;0.00;0.00;0.62;0.00;0.00;0.62;2.90;2.60;;;25.40;21.90;;;;;;2261102;61;20407;-60
2023/05/08 03:28:29;0.00;0.00;0.62;0.00;0.00;0.62;3.10;2.80;;;25.40;21.90;;;;;;2261818;61;20361;-60
2023/05/08 03:31:22;0.00;0.00;0.62;0.00;0.00;0.62;3.57;3.23;;;25.30;21.80;;;;;;2262212;61;20415;-60
2023/05/08 03:34:08;0.00;0.00;0.62;0.00;0.00;0.62;3.27;2.97;;;25.40;21.90;;;;;;2260825;61;20828;-60
2023/05/08 03:36:53;0.00;0.00;0.62;0.00;0.00;0.62;3.37;3.07;;;25.40;21.90;;;;;;2262049;61;20389;-59
2023/05/08 03:39:38;0.00;0.00;0.62;0.00;0.00;0.62;3.13;2.90;;;25.30;21.90;;;;;;2260944;61;20461;-63
2023/05/08 03:42:24;0.00;0.00;0.62;0.00;0.00;0.62;3.33;3.03;;;25.30;21.90;;;;;;2262552;61;20421;-59
2023/05/08 03:45:10;0.00;0.00;0.62;0.00;0.00;0.62;2.70;2.50;;;25.30;21.80;;;;;;2261517;61;20377;-59
2023/05/08 03:47:59;0.00;0.00;0.62;0.00;0.00;0.62;2.73;2.53;;;25.30;21.80;;;;;;2261128;61;20380;-59
2023/05/08 03:50:45;0.00;0.00;0.62;0.00;0.00;0.62;3.40;3.10;;;25.30;21.80;;;;;;2261220;61;20427;-59
2023/05/08 03:53:32;0.00;0.00;0.62;0.00;0.00;0.62;2.77;2.47;;;25.30;21.80;;;;;;2261643;61;20360;-60
2023/05/08 03:56:18;0.00;0.00;0.62;0.00;0.00;0.62;2.60;2.40;;;25.30;21.80;;;;;;2260989;61;20918;-60
2023/05/08 03:59:12;0.00;0.00;0.62;0.00;0.00;0.62;2.70;2.50;;;25.30;21.80;;;;;;2261095;61;20465;-58
2023/05/08 04:02:11;0.00;0.00;0.62;0.00;0.00;0.62;3.10;2.80;;;25.30;21.80;;;;;;2261277;61;20412;-60
2023/05/08 04:05:09;0.00;0.00;0.62;0.00;0.00;0.62;3.20;2.90;;;25.30;21.80;;;;;;2261557;61;20396;-59
2023/05/08 04:08:06;0.00;0.00;0.62;0.00;0.00;0.62;3.00;2.80;;;25.30;21.80;;;;;;2261602;61;20393;-60
2023/05/08 04:11:03;0.00;0.00;0.62;0.00;0.00;0.62;2.90;2.70;;;25.30;21.80;;;;;;2260644;61;20380;-60
2023/05/08 04:13:56;0.00;0.00;0.62;0.00;0.00;0.62;3.27;2.97;;;25.20;21.80;;;;;;2261454;61;20431;-60
2023/05/08 04:16:48;0.00;0.00;0.62;0.00;0.00;0.62;2.97;2.67;;;25.30;21.90;;;;;;2261060;61;20413;-59
2023/05/08 04:19:41;0.00;0.00;0.62;0.00;0.00;0.62;3.53;3.23;;;25.20;21.80;;;;;;2261975;61;20432;-59
2023/05/08 04:22:30;0.00;0.00;0.62;0.00;0.00;0.62;3.37;2.70;;;25.20;21.80;;;;;;2262415;61;20361;-59
2023/05/08 04:25:17;0.00;0.00;0.62;0.00;0.00;0.62;2.93;2.63;;;25.20;21.80;;;;;;2261686;61;20365;-59
2023/05/08 04:28:04;0.00;0.00;0.62;0.00;0.00;0.62;3.20;2.90;;;25.20;21.80;;;;;;2262172;61;20361;-60
2023/05/08 04:30:51;0.00;0.00;0.62;0.00;0.00;0.62;3.10;2.80;;;25.20;21.80;;;;;;2262224;61;20803;-60
2023/05/08 04:33:36;0.00;0.00;0.62;0.00;0.00;0.62;3.40;3.10;;;25.20;21.80;;;;;;2261906;61;20364;-60
2023/05/08 04:36:22;0.00;0.00;0.62;0.00;0.00;0.62;3.00;2.80;;;25.20;21.80;;;;;;2262304;61;20388;-58
2023/05/08 04:39:09;0.00;0.00;0.62;0.00;0.00;0.62;2.83;2.53;;;25.20;21.80;;;;;;2260969;61;20384;-59
2023/05/08 04:41:54;0.00;0.00;0.62;0.00;0.00;0.62;3.17;2.87;;;25.20;21.80;;;;;;2263026;61;20904;-60
2023/05/08 04:44:39;0.00;0.00;0.62;0.00;0.00;0.62;3.20;2.90;;;25.20;21.80;;;;;;2262099;61;20368;-60
2023/05/08 04:47:24;0.00;0.00;0.62;0.00;0.00;0.62;2.80;2.60;;;25.20;21.80;;;;;;2261493;61;20407;-59
2023/05/08 04:50:10;0.00;0.00;0.62;0.00;0.00;0.62;2.97;2.67;;;25.20;21.80;;;;;;2261877;61;20492;-60
2023/05/08 04:52:56;0.00;0.00;0.62;0.00;0.00;0.62;2.60;2.40;;;25.20;21.80;;;;;;2262361;61;20435;-60
2023/05/08 04:55:42;0.00;0.00;0.62;0.00;0.00;0.62;3.33;3.07;;;25.20;21.80;;;;;;2261793;61;20880;-60
2023/05/08 04:58:27;0.00;0.00;0.62;0.00;0.00;0.62;3.40;3.07;;;25.20;21.80;;;;;;2262180;61;20365;-60
2023/05/08 05:01:12;0.00;0.00;0.62;0.00;0.00;0.62;3.27;2.90;;;25.20;21.80;;;;;;2261355;61;20813;-60
2023/05/08 05:03:57;0.00;0.00;0.62;0.00;0.00;0.62;3.27;2.97;;;25.10;21.80;;;;;;2262432;61;20434;-63
2023/05/08 05:06:42;0.00;0.00;0.62;0.00;0.00;0.62;3.03;2.73;;;25.10;21.80;;;;;;2262213;61;20362;-59
2023/05/08 05:09:28;0.00;0.00;0.62;0.00;0.00;0.62;3.03;2.77;;;25.10;21.80;;;;;;2261194;61;20431;-60
2023/05/08 05:12:14;0.00;0.00;0.62;0.00;0.00;0.62;3.27;2.97;;;25.10;21.80;;;;;;2262869;61;20361;-60
2023/05/08 05:14:59;0.00;0.00;0.62;0.00;0.00;0.62;3.30;3.00;;;25.20;21.80;;;;;;2262459;61;20770;-60
2023/05/08 05:17:47;0.00;0.00;0.62;0.00;0.00;0.62;3.37;3.07;;;25.10;21.80;;;;;;2261554;61;20400;-60
2023/05/08 05:20:33;0.00;0.00;0.62;0.00;0.00;0.62;3.57;3.00;;;25.10;21.80;;;;;;2261619;61;20380;-60
2023/05/08 05:23:18;0.00;0.00;0.62;0.00;0.00;0.62;3.30;3.00;;;25.10;21.80;;;;;;2261890;61;20399;-64
2023/05/08 05:26:03;0.00;0.00;0.62;0.00;0.00;0.62;3.90;2.80;;;25.20;22.40;;;;;;2262127;61;20365;-60
2023/05/08 05:28:50;0.00;0.00;0.62;0.00;0.00;0.62;3.17;2.87;;;25.10;21.80;;;;;;2262297;61;20881;-60
2023/05/08 05:31:35;0.00;0.00;0.62;0.00;0.00;0.62;3.13;2.83;;;25.10;21.80;;;;;;2261692;61;20414;-58
2023/05/08 05:34:20;0.00;0.00;0.62;0.00;0.00;0.62;3.30;3.00;;;25.10;21.80;;;;;;2262306;61;20392;-60
2023/05/08 05:37:05;0.00;0.00;0.62;0.00;0.00;0.62;3.30;3.00;;;25.10;21.80;;;;;;2262351;61;20389;-60
2023/05/08 05:39:50;0.00;0.00;0.62;0.00;0.00;0.62;3.50;3.20;;;25.10;21.80;;;;;;2261266;61;20427;-61
2023/05/08 05:42:35;0.00;0.00;0.62;0.00;0.00;0.62;3.73;3.33;;;25.10;21.80;;;;;;2262292;61;20369;-59
2023/05/08 05:45:21;0.00;0.00;0.62;0.00;0.00;0.62;3.10;2.80;;;25.10;21.80;;;;;;2261503;61;20494;-60
2023/05/08 05:48:06;0.00;0.00;0.62;0.00;0.00;0.62;3.37;2.93;;;25.10;21.80;;;;;;2262229;61;20369;-60
2023/05/08 05:50:52;0.00;0.00;0.62;0.00;0.00;0.62;3.33;3.03;;;25.10;21.80;;;;;;2262071;61;20948;-60
2023/05/08 05:53:38;0.00;0.00;0.62;0.00;0.00;0.62;3.23;2.93;;;25.10;21.80;;;;;;2261484;61;20451;-60
2023/05/08 05:56:23;0.00;0.00;0.62;0.00;0.00;0.62;3.60;3.30;;;25.10;21.80;;;;;;2262027;61;20400;-60
2023/05/08 05:59:08;0.00;0.00;0.62;0.00;0.00;0.62;3.53;3.23;;;25.10;21.80;;;;;;2261648;61;20377;-59
2023/05/08 06:01:55;0.00;0.00;0.62;0.00;0.00;0.62;3.30;3.00;;;25.10;21.80;;;;;;2261131;61;21104;-59
2023/05/08 06:04:39;0.00;0.00;0.62;0.00;0.00;0.62;3.93;3.13;;;25.10;21.80;;;;;;2262179;61;20419;-59
2023/05/08 06:07:26;0.00;0.00;0.62;0.00;0.00;0.62;3.17;2.87;;;25.10;21.80;;;;;;2261657;61;20801;-59
2023/05/08 06:10:10;0.00;0.00;0.62;0.00;0.00;0.62;3.33;2.70;;;25.10;21.80;;;;;;2261888;61;20459;-60
2023/05/08 06:12:55;0.00;0.00;0.62;0.00;0.00;0.62;2.97;2.67;;;25.10;21.80;;;;;;2262093;61;20384;-58
2023/05/08 06:15:40;0.00;0.00;0.62;0.00;0.00;0.62;3.40;3.10;;;25.10;21.80;;;;;;2261294;61;20411;-60
2023/05/08 06:18:27;0.00;0.00;0.62;0.00;0.00;0.62;3.10;2.80;;;25.10;21.80;;;;;;2261999;61;20377;-58
2023/05/08 06:21:11;0.00;0.00;0.62;0.00;0.00;0.62;3.53;3.23;;;25.10;21.80;;;;;;2261693;61;20369;-59
2023/05/08 06:23:56;0.00;0.00;0.62;0.00;0.00;0.62;3.40;3.07;;;25.10;21.80;;;;;;2261617;61;20361;-60
2023/05/08 06:26:40;0.00;0.00;0.62;0.00;0.00;0.62;3.73;3.43;;;25.10;21.90;;;;;;2262290;61;20365;-60
2023/05/08 06:29:25;0.00;0.00;0.62;0.00;0.00;0.62;3.80;3.40;;;25.10;21.80;;;;;;2261647;61;20431;-60
2023/05/08 06:32:10;0.00;0.00;0.62;0.00;0.00;0.62;2.90;2.60;;;25.10;22.30;;;;;;2262283;61;20412;-57
2023/05/08 06:34:56;0.00;0.00;0.62;0.00;0.00;0.62;3.50;3.20;;;25.10;21.80;;;;;;2262050;61;20380;-58
2023/05/08 06:37:40;0.00;0.00;0.62;0.00;0.00;0.62;4.40;3.47;;;25.10;21.80;;;;;;2261227;61;20388;-58
2023/05/08 06:40:25;0.00;0.00;0.62;0.00;0.00;0.62;3.50;3.20;;;25.10;21.80;;;;;;2262102;61;20419;-60
2023/05/08 06:43:11;0.00;0.00;0.62;0.00;0.00;0.62;3.63;3.30;;;25.10;21.80;;;;;;2262208;61;20830;-59
2023/05/08 06:45:56;0.00;0.00;0.62;0.00;0.00;0.62;3.60;3.30;;;25.10;21.80;;;;;;2261524;61;20771;-60
2023/05/08 06:48:41;0.00;0.00;0.62;0.00;0.00;0.62;3.60;3.30;;;25.10;21.80;;;;;;2262041;61;20764;-59
2023/05/08 06:51:27;0.00;0.00;0.62;0.00;0.00;0.62;4.40;3.90;;;25.10;21.80;;;;;;2262161;61;20391;-57
2023/05/08 06:54:11;0.00;0.00;0.62;0.00;0.00;0.62;3.67;3.10;;;25.10;21.80;;;;;;2261626;61;20446;-59
2023/05/08 06:56:56;0.00;0.00;0.62;0.00;0.00;0.62;4.30;3.57;;;25.10;21.80;;;;;;2262017;61;20405;-60
2023/05/08 06:59:41;0.00;0.00;0.62;0.00;0.00;0.62;4.30;3.70;;;25.10;21.80;;;;;;2261051;61;20377;-60
2023/05/08 07:02:25;0.00;0.00;0.62;0.00;0.00;0.62;4.73;4.20;;;25.10;21.80;;;;;;2262062;61;20415;-60
2023/05/08 07:05:10;0.00;0.00;0.62;0.00;0.00;0.62;3.47;3.17;;;25.10;21.80;;;;;;2262055;61;20360;-60
2023/05/08 07:07:56;0.00;0.00;0.62;0.00;0.00;0.62;4.20;3.70;;;25.10;21.80;;;;;;2261338;61;20357;-60
2023/05/08 07:10:41;0.00;0.00;0.62;0.00;0.00;0.62;3.87;3.47;;;25.10;21.80;;;;;;2261584;61;20415;-60
2023/05/08 07:13:25;0.00;0.00;0.62;0.00;0.00;0.62;4.13;3.60;;;25.10;21.80;;;;;;2262220;61;20849;-60
2023/05/08 07:16:10;0.00;0.00;0.62;0.00;0.00;0.62;3.90;3.23;;;25.10;21.80;;;;;;2261266;61;20361;-60
2023/05/08 07:18:55;0.00;0.00;0.62;0.00;0.00;0.62;3.87;3.50;;;25.10;21.80;;;;;;2261688;61;20698;-60
2023/05/08 07:21:39;0.00;0.00;0.62;0.00;0.00;0.62;3.90;3.50;;;25.10;21.80;;;;;;2261130;61;20388;-59
2023/05/08 07:24:25;0.00;0.00;0.62;0.00;0.00;0.62;4.33;3.87;;;25.10;21.80;;;;;;2261621;61;20365;-60
2023/05/08 07:27:13;0.00;0.00;0.62;0.00;0.00;0.62;3.80;3.40;;;25.10;21.80;;;;;;2262119;61;20415;-60
2023/05/08 07:30:02;0.00;0.00;0.62;0.00;0.00;0.62;4.10;3.70;;;25.10;21.80;;;;;;2260951;61;20428;-60
2023/05/08 07:32:47;0.00;0.00;0.62;0.00;0.00;0.62;3.93;3.53;;;25.10;21.80;;;;;;2262349;61;20439;-59
2023/05/08 07:35:31;0.00;0.00;0.62;0.00;0.00;0.62;4.00;3.60;;;25.10;21.80;;;;;;2261692;61;20869;-60
2023/05/08 07:38:16;0.00;0.00;0.62;0.00;0.00;0.62;4.40;3.80;;;25.10;21.80;;;;;;2260975;61;20385;-58
2023/05/08 07:41:04;0.00;0.00;0.62;0.00;0.00;0.62;4.27;3.40;;;25.10;21.80;;;;;;2261710;61;20361;-59
2023/05/08 07:43:49;0.00;0.00;0.62;0.00;0.00;0.62;4.50;3.53;;;25.10;21.80;;;;;;2261425;61;20369;-60
2023/05/08 07:46:33;0.00;0.00;0.62;0.00;0.00;0.62;4.30;3.90;;;25.10;21.80;;;;;;2262019;61;20356;-58
2023/05/08 07:49:18;0.00;0.00;0.62;0.00;0.00;0.62;4.43;3.40;;;25.10;21.90;;;;;;2261833;61;20443;-59
2023/05/08 07:52:03;0.00;0.00;0.62;0.00;0.00;0.62;3.77;3.27;;;25.10;21.80;;;;;;2261217;61;20377;-60
2023/05/08 07:54:48;0.00;0.00;0.62;0.00;0.00;0.62;4.20;3.80;;;25.10;21.80;;;;;;2261833;61;20361;-59
2023/05/08 07:57:37;0.00;0.00;0.62;0.00;0.00;0.62;4.20;3.80;;;25.10;21.80;;;;;;2262160;61;20414;-59
2023/05/08 08:00:22;0.00;0.00;0.62;0.00;0.00;0.62;3.67;3.37;;;25.10;21.80;;;;;;2260846;61;20944;-59
2023/05/08 08:03:07;0.00;0.00;0.62;0.00;0.00;0.62;3.73;3.17;;;25.10;21.80;;;;;;2262065;61;20380;-60
2023/05/08 08:05:51;0.00;0.00;0.62;0.00;0.00;0.62;4.00;3.70;;;25.10;21.80;;;;;;2261652;61;20361;-59
2023/05/08 08:08:36;0.00;0.00;0.62;0.00;0.00;0.62;3.97;3.33;;;25.10;21.80;;;;;;2261535;61;20847;-60
2023/05/08 08:11:21;0.00;0.00;0.62;0.00;0.00;0.62;4.13;3.60;;;25.20;21.90;;;;;;2262007;61;20447;-60
2023/05/08 08:14:07;0.00;0.00;0.62;0.00;0.00;0.62;4.37;3.97;;;25.10;21.80;;;;;;2260728;61;20353;-60
2023/05/08 08:16:52;0.00;0.00;0.62;0.00;0.00;0.62;3.70;3.40;;;25.10;21.80;;;;;;2261348;61;20424;-59
2023/05/08 08:19:36;0.00;0.00;0.62;0.00;0.00;0.62;3.73;3.33;;;25.10;21.90;;;;;;2261480;61;20419;-60
2023/05/08 08:22:21;0.00;0.00;0.62;0.00;0.00;0.62;4.17;3.50;;;25.10;21.90;;;;;;2261089;61;20415;-59
2023/05/08 08:25:07;0.00;0.00;0.62;0.00;0.00;0.62;3.77;3.37;;;25.10;21.80;;;;;;2261825;61;20403;-60
2023/05/08 08:27:52;0.00;0.00;0.62;0.00;0.00;0.62;3.57;3.27;;;25.10;21.90;;;;;;2261783;61;20412;-59
2023/05/08 08:30:38;0.00;0.00;0.62;0.00;0.00;0.62;4.17;3.70;;;25.10;21.90;;;;;;2261339;61;20384;-60
2023/05/08 08:33:23;0.00;0.00;0.62;0.00;0.00;0.62;4.00;3.60;;;25.10;21.90;;;;;;2261543;61;20905;-59
2023/05/08 08:36:12;0.00;0.00;0.62;0.00;0.00;0.62;4.10;3.67;;;25.10;21.90;;;;;;2260891;61;20364;-59
2023/05/08 08:38:57;0.00;0.00;0.62;0.00;0.00;0.62;3.90;3.50;;;25.10;21.90;;;;;;2261654;61;20376;-59
2023/05/08 08:41:42;0.00;0.00;0.62;0.00;0.00;0.62;3.80;3.33;;;25.10;21.90;;;;;;2261546;61;20357;-60
2023/05/08 08:44:27;0.00;0.00;0.62;0.00;0.00;0.62;3.43;3.13;;;25.10;21.90;;;;;;2260518;61;20440;-60
2023/05/08 08:47:17;0.00;0.00;0.62;0.00;0.00;0.62;4.63;3.70;;;25.10;21.90;;;;;;2261255;61;20400;-58
2023/05/08 08:50:07;0.00;0.00;0.62;0.00;0.00;0.62;3.27;2.83;;;25.10;21.90;;;;;;2261380;61;20393;-55
2023/05/08 08:52:59;0.00;0.00;0.62;0.00;0.00;0.62;3.70;3.27;;;25.10;21.90;;;;;;2261607;61;20462;-58
2023/05/08 08:55:49;0.00;0.00;0.62;0.00;0.00;0.62;4.10;3.70;;;25.10;21.90;;;;;;2261881;61;20786;-59
2023/05/08 08:58:45;0.00;0.00;0.62;0.00;0.00;0.62;3.27;3.03;;;25.10;21.90;;;;;;2260732;61;20373;-56
2023/05/08 09:01:33;0.00;0.00;0.62;0.00;0.00;0.62;3.40;3.10;;;25.20;22.00;;;;;;2261967;61;20896;-59
2023/05/08 09:04:19;0.00;0.00;0.62;0.00;0.00;0.62;3.57;3.23;;;25.10;21.90;;;;;;2261552;61;20459;-59
2023/05/08 09:07:04;0.00;0.00;0.62;0.00;0.00;0.62;4.00;3.60;;;25.20;22.00;;;;;;2261659;61;20384;-60
2023/05/08 09:09:50;0.00;0.00;0.62;0.00;0.00;0.62;4.07;3.67;;;25.10;21.90;;;;;;2262083;61;20447;-60
2023/05/08 09:12:35;0.00;0.00;0.62;0.00;0.00;0.62;5.23;3.80;;;25.10;21.90;;;;;;2261830;61;20661;-57
2023/05/08 09:15:20;0.00;0.00;0.62;0.00;0.00;0.62;3.73;3.43;;;25.10;22.00;;;;;;2262277;61;20444;-60
2023/05/08 09:18:06;0.00;0.00;0.62;0.00;0.00;0.62;3.47;3.17;;;25.10;22.00;;;;;;2262257;61;20384;-59
2023/05/08 09:20:52;0.00;0.00;0.62;0.00;0.00;0.62;4.33;3.87;;;25.10;22.00;;;;;;2261458;61;20820;-62
2023/05/08 09:23:53;0.00;0.00;0.62;0.00;0.00;0.62;3.80;3.40;;;25.20;22.00;;;;;;2262274;61;20369;-59
2023/05/08 09:26:39;0.00;0.00;0.62;0.00;0.00;0.62;3.53;3.20;;;25.10;22.00;;;;;;2262256;61;20378;-58
2023/05/08 09:29:24;0.00;0.00;0.62;0.00;0.00;0.62;4.00;3.40;;;25.10;22.00;;;;;;2261453;61;20789;-60
2023/05/08 09:32:17;0.00;0.00;0.62;0.00;0.00;0.62;3.73;2.90;;;25.10;22.00;;;;;;2262602;61;20913;-57
2023/05/08 09:35:04;0.00;0.00;0.62;0.00;0.00;0.62;3.63;3.30;;;25.10;22.00;;;;;;2261724;61;20364;-60
2023/05/08 09:37:50;0.00;0.00;0.62;0.00;0.00;0.62;3.77;3.40;;;25.10;22.00;;;;;;2262352;61;20771;-61
2023/05/08 09:40:35;0.00;0.00;0.62;0.00;0.00;0.62;3.77;3.37;;;25.10;22.00;;;;;;2261978;61;20410;-60
2023/05/08 09:43:20;0.00;0.00;0.62;0.00;0.00;0.62;3.47;3.17;;;25.10;22.00;;;;;;2261584;61;20427;-60
2023/05/08 09:46:25;0.00;0.00;0.62;0.00;0.00;0.62;3.80;3.50;;;25.20;22.10;;;;;;2262181;61;20406;-59
2023/05/08 09:49:17;0.00;0.00;0.62;0.00;0.00;0.62;3.60;3.20;;;25.20;22.10;;;;;;2258956;61;20592;-59
2023/05/08 09:52:02;0.00;0.00;0.62;0.00;0.00;0.62;4.33;3.93;;;25.20;22.10;;;;;;2261950;61;20360;-60
2023/05/08 09:54:56;0.00;0.00;0.62;0.00;0.00;0.62;3.70;3.13;;;25.20;22.20;;;;;;2261771;61;20416;-59
2023/05/08 09:57:55;0.00;0.00;0.62;0.00;0.00;0.62;3.50;3.13;;;25.20;22.20;;;;;;2261297;61;20389;-58
2023/05/08 10:00:40;0.00;0.00;0.62;0.00;0.00;0.62;4.20;3.80;;;25.20;22.20;;;;;;2261882;61;20769;-59
2023/05/08 10:03:45;0.00;0.00;0.62;0.00;0.00;0.62;4.00;3.60;;;25.20;22.20;;;;;;2261957;61;20392;-60
2023/05/08 10:06:31;0.00;0.00;0.62;0.00;0.00;0.62;3.70;3.40;;;25.20;22.20;;;;;;2261410;61;20357;-57
2023/05/08 10:09:15;0.00;0.00;0.62;0.00;0.00;0.62;3.70;3.40;;;25.20;22.30;;;;;;2261805;61;20412;-60
2023/05/08 10:12:02;0.00;0.00;0.62;0.00;0.00;0.62;3.83;3.40;;;25.20;22.30;;;;;;2261783;61;20923;-59
2023/05/08 10:14:47;0.00;0.00;0.62;0.00;0.00;0.62;3.93;3.63;;;25.20;22.40;;;;;;2262068;61;20396;-58
2023/05/08 10:17:42;0.00;0.00;0.62;0.00;0.00;0.62;3.20;2.90;;;25.20;22.30;;;;;;2261844;61;20435;-59
2023/05/08 10:20:30;0.00;0.00;0.62;0.00;0.00;0.62;4.40;4.00;;;25.20;22.40;;;;;;2266019;40;20447;-59
2023/05/08 10:23:17;0.00;0.00;0.62;0.00;0.00;0.62;4.30;3.53;;;25.20;22.40;;;;;;2261702;61;20393;-59
2023/05/08 10:26:09;0.00;0.00;0.62;0.00;0.00;0.62;3.90;3.47;;;25.20;22.40;;;;;;2262266;61;20392;-58
2023/05/08 10:28:57;0.00;0.00;0.62;0.00;0.00;0.62;3.80;3.50;;;25.20;22.40;;;;;;2261538;61;20391;-60
2023/05/08 10:31:45;0.00;0.00;0.62;0.00;0.00;0.62;3.30;3.00;;;25.20;22.40;;;;;;2262372;61;20404;-60
2023/05/08 10:34:32;0.00;0.00;0.62;0.00;0.00;0.62;4.37;3.27;;;25.30;22.40;;;;;;2261285;61;20399;-59
2023/05/08 10:37:17;0.00;0.00;0.62;0.00;0.00;0.62;3.40;3.10;;;25.30;22.40;;;;;;2262226;61;20918;-59
2023/05/08 10:40:04;0.00;0.00;0.62;0.00;0.00;0.62;3.60;3.30;;;25.30;22.40;;;;;;2261478;61;20396;-58
2023/05/08 10:42:50;0.00;0.00;0.62;0.00;0.00;0.62;3.20;2.90;;;25.30;22.40;;;;;;2261182;61;20400;-60
2023/05/08 10:45:37;0.00;0.00;0.62;0.00;0.00;0.62;3.37;3.07;;;25.30;22.40;;;;;;2261950;61;20357;-59
2023/05/08 10:48:31;0.00;0.00;0.62;0.00;0.00;0.62;3.80;3.40;;;25.30;22.40;;;;;;2262035;61;20783;-55
2023/05/08 10:51:31;0.00;0.00;0.62;0.00;0.00;0.62;3.37;2.90;;;25.30;22.40;;;;;;2261919;61;20380;-59
2023/05/08 10:54:24;0.00;0.00;0.62;0.00;0.00;0.62;3.30;3.00;;;25.40;22.50;;;;;;2261328;61;20361;-58
2023/05/08 10:57:10;0.00;0.00;0.62;0.00;0.00;0.62;3.07;2.80;;;25.40;22.50;;;;;;2261094;61;20644;-60
2023/05/08 10:59:55;0.00;0.00;0.62;0.00;0.00;0.62;3.00;2.70;;;25.40;22.50;;;;;;2261342;61;20803;-60
2023/05/08 11:02:41;0.00;0.00;0.62;0.00;0.00;0.62;3.80;3.27;;;25.40;22.50;;;;;;2261712;61;20357;-60